Terminal Aerodrome Forecast
Issued by NWS Wilmington, NC

Home | Current Version | Previous Version | Text Only | Print | Product List | Glossary On
Versions: 1 2 3 4 5 6 7 8 9 10 11 12 13 14 15 16 17 18 19 20 21 22 23 24 25 26 27 28 29 30
000
FTUS42 KILM 041700 CCA
TAFILM
TAF COR
KILM 041728Z 0418/0518 22015G30KT P6SM SCT012 BKN025 BKN060
     FM050100 21010KT P6SM FEW004 SCT010 BKN030
     FM050700 21009KT 2SM BR BKN003
     FM051400 23010G18KT P6SM VCSH OVC007=

USA.gov is the U.S. government's official web portal to all federal, state and local government web resources and services.